createdAt,value
2019-04-21T00:02:26.471Z,95335.39
2019-04-21T00:05:14.148Z,95324.28
2019-04-21T00:07:49.505Z,95335.89
2019-04-21T00:10:18.783Z,95313.05
2019-04-21T00:12:45.895Z,95277.16
2019-04-21T00:15:09.706Z,95242.25
2019-04-21T00:17:36.950Z,95221.36
2019-04-21T00:20:22.453Z,95209.63
2019-04-21T00:22:53.371Z,95217.92
2019-04-21T00:25:31.676Z,95252.05
2019-04-21T00:28:12.210Z,95220.42
2019-04-21T00:30:39.823Z,95182.75
2019-04-21T00:33:00.215Z,95150.30
2019-04-21T00:35:27.453Z,95126.48
2019-04-21T00:38:18.378Z,95136.27
2019-04-21T00:40:56.652Z,95206.39
2019-04-21T00:43:19.888Z,95149.33
2019-04-21T00:45:44.849Z,95076.63
2019-04-21T00:48:32.959Z,95055.31
2019-04-21T00:51:16.926Z,95014.41
2019-04-21T00:53:53.482Z,94987.07
2019-04-21T00:56:21.300Z,94961.35
2019-04-21T00:58:53.600Z,94961.04
2019-04-21T01:01:19.824Z,95014.72
2019-04-21T01:03:59.086Z,95030.67
2019-04-21T01:06:34.033Z,94958.30
2019-04-21T01:09:01.277Z,94917.36
2019-04-21T01:11:31.847Z,94879.95
2019-04-21T01:14:05.126Z,94937.22
2019-04-21T01:16:39.586Z,94940.98
2019-04-21T01:19:13.902Z,94894.45
2019-04-21T01:21:22.023Z,94853.25
2019-04-21T01:23:55.692Z,94836.36
2019-04-21T01:26:32.528Z,94869.86
2019-04-21T01:29:12.066Z,94897.19
2019-04-21T01:31:42.626Z,94844.33
2019-04-21T01:34:24.920Z,94790.82
2019-04-21T01:36:58.693Z,94787.09
2019-04-21T01:39:34.506Z,94811.28
2019-04-21T01:42:03.208Z,94810.98
2019-04-21T01:47:04.944Z,94850.63
2019-04-21T01:49:29.558Z,94818.13
2019-04-21T01:52:24.691Z,94761.20
2019-04-21T01:55:06.425Z,94720.08
2019-04-21T01:57:56.653Z,94680.60
2019-04-21T02:00:39.399Z,94643.86
2019-04-21T02:03:31.494Z,94619.28
2019-04-21T02:05:51.392Z,94605.48
2019-04-21T02:08:15.533Z,94594.73
2019-04-21T02:10:54.874Z,94671.45
2019-04-21T02:13:20.226Z,94614.56
2019-04-21T02:16:01.072Z,94585.98
2019-04-21T02:18:27.580Z,94572.69
2019-04-21T02:20:52.822Z,94562.12
2019-04-21T02:23:38.513Z,94542.81
2019-04-21T02:26:09.724Z,94541.20
2019-04-21T02:28:51.726Z,94540.20
2019-04-21T02:31:22.638Z,94525.27
2019-04-21T02:41:37.862Z,94477.70
2019-04-21T02:51:42.577Z,94407.30
2019-04-21T02:59:22.836Z,94367.52
2019-04-21T03:05:01.710Z,94358.47
2019-04-21T03:07:20.002Z,94385.70
2019-04-21T03:09:51.099Z,94400.16
2019-04-21T03:12:22.178Z,94359.27
2019-04-21T03:17:44.137Z,94466.54
2019-04-21T03:20:11.528Z,94539.59
2019-04-21T03:25:25.175Z,94526.58
2019-04-21T03:27:50.141Z,94499.63
2019-04-21T03:30:29.856Z,94460.52
2019-04-21T03:36:02.246Z,94516.21
2019-04-21T03:37:55.423Z,94498.32
2019-04-21T03:40:24.033Z,94532.41
2019-04-21T03:42:59.447Z,94503.84
2019-04-21T03:48:01.405Z,94546.42
2019-04-21T03:50:35.423Z,94626.93
2019-04-21T03:53:09.568Z,94626.93
2019-04-21T03:58:25.908Z,94673.45
2019-04-21T04:06:25.696Z,94691.98
2019-04-21T04:11:58.332Z,94745.48
2019-04-21T04:14:45.951Z,94773.59
2019-04-21T04:19:45.424Z,94846.13
2019-04-21T04:24:39.158Z,94951.61
2019-04-21T04:27:22.485Z,94979.29
2019-04-21T04:29:39.680Z,95019.15
2019-04-21T04:32:16.901Z,95052.89
2019-04-21T04:34:59.537Z,95117.58
2019-04-21T04:37:38.340Z,95167.98
2019-04-21T04:40:13.532Z,95230.41
2019-04-21T04:45:38.498Z,95370.25
2019-04-21T04:47:59.048Z,95467.55
2019-04-21T04:53:28.735Z,95745.63
2019-04-21T04:58:19.231Z,96006.50
2019-04-21T05:01:10.177Z,96043.36
2019-04-21T05:03:37.218Z,96137.33
2019-04-21T05:09:09.433Z,96283.02
2019-04-21T05:14:06.252Z,96489.52
2019-04-21T05:19:18.115Z,96759.36
2019-04-21T05:24:01.365Z,97106.13
2019-04-21T05:26:33.145Z,97247.57
2019-04-21T05:29:02.024Z,97420.39
2019-04-21T05:34:42.645Z,97747.72
2019-04-21T05:37:43.268Z,98009.77
2019-04-21T05:40:24.776Z,98172.47
2019-04-21T05:42:55.777Z,98637.36
2019-04-21T05:45:34.838Z,98925.20
2019-04-21T05:48:35.085Z,99066.52
2019-04-21T05:51:03.695Z,98696.33
2019-04-21T05:53:35.689Z,98364.50
2019-04-21T05:56:17.270Z,98141.53
2019-04-21T05:58:43.986Z,97966.17
2019-04-21T06:01:24.089Z,97931.33
2019-04-21T06:06:31.008Z,98569.26
2019-04-21T06:08:53.978Z,98887.80
2019-04-21T06:11:45.907Z,98680.95
2019-04-21T06:14:11.862Z,98511.19
2019-04-21T06:16:43.086Z,99058.98
2019-04-21T06:19:14.227Z,99865.08
2019-04-21T06:21:40.461Z,100477.92
2019-04-21T06:24:18.791Z,101100.47
2019-04-21T06:29:14.882Z,100894.31
2019-04-21T06:34:27.829Z,100659.94
2019-04-21T06:37:32.701Z,100826.80
2019-04-21T06:39:52.419Z,101116.41
2019-04-21T06:42:16.417Z,100861.53
2019-04-21T06:47:29.963Z,100968.41
2019-04-21T06:49:53.717Z,100902.60
2019-04-21T07:00:10.406Z,101410.97
2019-04-21T07:05:20.311Z,101400.47
2019-04-21T07:07:57.590Z,101412.66
2019-04-21T07:10:22.497Z,101581.40
2019-04-21T07:12:55.862Z,101850.55
2019-04-21T07:15:28.308Z,101662.93
2019-04-21T07:18:04.597Z,101582.03
2019-04-21T07:20:36.258Z,102151.27
2019-04-21T07:23:11.232Z,101816.44
2019-04-21T07:25:49.311Z,102216.86
2019-04-21T07:28:21.502Z,102340.16
2019-04-21T07:30:51.558Z,102218.45
2019-04-21T07:33:46.222Z,102401.67
2019-04-21T07:35:51.705Z,102483.16
2019-04-21T07:38:24.405Z,102507.59
2019-04-21T07:40:45.793Z,102111.94
2019-04-21T07:43:22.179Z,102247.31
2019-04-21T07:45:52.478Z,102355.52
2019-04-21T07:48:37.613Z,102383.73
2019-04-21T07:51:24.898Z,101671.08
2019-04-21T07:54:13.364Z,101532.63
2019-04-21T07:56:29.025Z,101608.14
2019-04-21T07:59:10.050Z,101849.53
2019-04-21T08:01:53.511Z,101486.53
2019-04-21T08:04:37.871Z,101368.48
2019-04-21T08:06:52.415Z,101399.63
2019-04-21T08:09:25.557Z,101500.61
2019-04-21T08:11:54.752Z,101439.67
2019-04-21T08:14:31.782Z,101483.48
2019-04-21T08:17:06.011Z,101739.55
2019-04-21T08:19:32.191Z,101818.31
2019-04-21T08:22:11.066Z,102252.48
2019-04-21T08:24:42.128Z,102063.08
2019-04-21T08:27:19.055Z,102226.10
2019-04-21T08:29:46.280Z,102295.78
2019-04-21T08:32:31.115Z,101825.33
2019-04-21T08:35:08.483Z,102116.75
2019-04-21T08:37:29.537Z,102155.60
2019-04-21T08:40:09.860Z,102382.29
2019-04-21T08:42:30.511Z,102901.47
2019-04-21T08:45:07.383Z,102983.22
2019-04-21T08:47:40.069Z,103264.33
2019-04-21T08:50:08.017Z,103648.38
2019-04-21T08:52:51.003Z,103868.00
2019-04-21T08:55:31.787Z,103876.90
2019-04-21T08:58:35.449Z,103997.19
2019-04-21T09:01:23.799Z,103399.03
2019-04-21T09:09:08.163Z,103420.99
2019-04-21T09:11:37.554Z,103531.61
2019-04-21T09:14:07.816Z,103957.93
2019-04-21T09:16:35.195Z,104286.86
2019-04-21T09:19:04.444Z,104057.34
2019-04-21T09:21:45.003Z,103972.81
2019-04-21T09:24:16.674Z,103817.97
2019-04-21T09:26:46.574Z,103823.66
2019-04-21T09:29:15.961Z,103813.39
2019-04-21T09:31:41.815Z,104179.02
2019-04-21T09:34:16.469Z,104379.63
2019-04-21T09:36:47.844Z,103726.99
2019-04-21T09:39:18.781Z,103886.80
2019-04-21T09:41:49.877Z,104294.05
2019-04-21T09:44:25.505Z,104192.40
2019-04-21T09:46:55.926Z,103304.53
2019-04-21T09:49:27.161Z,102993.08
2019-04-21T09:51:55.300Z,103134.59
2019-04-21T09:54:31.243Z,103218.78
2019-04-21T09:57:10.633Z,103832.72
2019-04-21T09:59:41.776Z,104165.77
2019-04-21T10:02:17.470Z,104182.87
2019-04-21T10:04:42.492Z,104187.70
2019-04-21T10:07:25.799Z,103769.63
2019-04-21T10:09:47.990Z,104036.18
2019-04-21T10:12:19.934Z,103603.91
2019-04-21T10:14:51.766Z,103667.77
2019-04-21T10:17:39.620Z,103583.38
2019-04-21T10:20:11.829Z,103561.15
2019-04-21T10:22:43.080Z,103571.77
2019-04-21T10:25:16.775Z,103257.17
2019-04-21T10:27:49.393Z,103719.08
2019-04-21T10:30:20.433Z,104306.50
2019-04-21T10:32:50.815Z,104304.47
2019-04-21T10:35:23.076Z,104222.19
2019-04-21T10:38:04.408Z,103770.38
2019-04-21T10:40:25.543Z,103430.86
2019-04-21T10:43:03.938Z,103058.95
2019-04-21T10:45:34.927Z,103185.86
2019-04-21T10:48:05.274Z,103425.42
2019-04-21T10:50:37.038Z,103086.78
2019-04-21T10:53:20.826Z,103398.65
2019-04-21T10:56:06.406Z,103764.07
2019-04-21T10:58:26.587Z,103955.00
2019-04-21T11:01:06.572Z,103160.73
2019-04-21T11:03:48.777Z,103421.72
2019-04-21T11:06:20.990Z,103490.86
2019-04-21T11:08:55.396Z,104249.83
2019-04-21T11:11:24.042Z,104290.02
2019-04-21T11:13:54.853Z,104194.69
2019-04-21T11:16:26.933Z,104251.08
2019-04-21T11:18:58.040Z,103997.08
2019-04-21T11:21:29.221Z,104036.11
2019-04-21T11:23:59.709Z,103562.74
2019-04-21T11:26:33.821Z,103972.95
2019-04-21T11:29:05.430Z,104160.62
2019-04-21T11:31:38.952Z,103828.30
2019-04-21T11:34:09.422Z,104197.42
2019-04-21T11:36:43.919Z,103934.71
2019-04-21T11:39:33.535Z,103609.70
2019-04-21T11:41:57.710Z,103109.34
2019-04-21T11:44:31.133Z,103321.78
2019-04-21T11:47:02.652Z,103763.94
2019-04-21T11:49:36.955Z,103849.58
2019-04-21T11:52:09.073Z,103877.41
2019-04-21T11:54:40.679Z,104372.03
2019-04-21T11:57:20.523Z,104014.45
2019-04-21T11:59:45.890Z,103667.30
2019-04-21T12:02:23.568Z,103504.09
2019-04-21T12:04:53.891Z,103357.05
2019-04-21T12:07:27.151Z,103587.95
2019-04-21T12:09:57.893Z,103116.46
2019-04-21T12:12:29.510Z,102995.00
2019-04-21T12:14:59.989Z,103107.95
2019-04-21T12:17:30.282Z,103060.50
2019-04-21T12:20:04.212Z,103199.93
2019-04-21T12:22:39.080Z,103281.17
2019-04-21T12:25:13.225Z,103546.83
2019-04-21T12:27:45.692Z,102782.53
2019-04-21T12:30:17.733Z,102814.75
2019-04-21T12:33:13.993Z,102681.33
2019-04-21T12:35:45.931Z,102722.41
2019-04-21T12:38:27.995Z,102779.46
2019-04-21T12:41:13.329Z,102825.72
2019-04-21T12:43:44.538Z,102721.29
2019-04-21T12:46:18.200Z,102968.02
2019-04-21T12:48:49.698Z,102848.27
2019-04-21T12:51:20.102Z,102891.07
2019-04-21T12:53:51.966Z,102021.97
2019-04-21T12:56:23.400Z,101941.24
2019-04-21T12:58:55.264Z,101970.74
2019-04-21T13:01:27.393Z,102263.20
2019-04-21T13:03:57.899Z,102117.09
2019-04-21T13:06:29.698Z,102574.00
2019-04-21T13:09:06.917Z,102848.13
2019-04-21T13:11:37.214Z,102302.30
2019-04-21T13:14:08.238Z,102195.96
2019-04-21T13:16:43.561Z,102164.18
2019-04-21T13:19:13.883Z,102174.36
2019-04-21T13:21:44.212Z,102108.91
2019-04-21T13:24:16.062Z,101900.59
2019-04-21T13:26:52.358Z,102099.45
2019-04-21T13:29:20.510Z,102187.48
2019-04-21T13:31:52.144Z,101852.86
2019-04-21T13:34:24.115Z,101409.83
2019-04-21T13:36:57.422Z,100838.28
2019-04-21T13:40:21.100Z,101077.58
2019-04-21T13:42:40.008Z,101293.17
2019-04-21T13:45:08.267Z,101437.44
2019-04-21T13:47:46.233Z,101846.34
2019-04-21T13:50:17.407Z,102219.00
2019-04-21T13:52:48.948Z,102345.95
2019-04-21T13:55:19.473Z,102419.22
2019-04-21T13:57:50.479Z,102755.18
2019-04-21T14:00:23.998Z,102791.59
2019-04-21T14:02:54.702Z,102191.41
2019-04-21T14:05:26.537Z,102102.38
2019-04-21T14:07:58.012Z,102047.25
2019-04-21T14:10:31.344Z,102005.85
2019-04-21T14:13:02.598Z,102036.72
2019-04-21T14:15:33.567Z,101983.06
2019-04-21T14:18:04.667Z,102438.38
2019-04-21T14:20:37.432Z,102297.98
2019-04-21T14:23:17.224Z,101900.31
2019-04-21T14:25:43.749Z,101918.79
2019-04-21T14:28:15.633Z,101814.13
2019-04-21T14:30:46.167Z,101968.84
2019-04-21T14:33:18.205Z,101784.36
2019-04-21T14:35:48.630Z,101561.40
2019-04-21T14:38:18.947Z,101380.98
2019-04-21T14:40:50.323Z,101686.05
2019-04-21T14:43:23.751Z,101577.64
2019-04-21T14:45:59.132Z,101788.77
2019-04-21T14:48:50.892Z,101996.76
2019-04-21T14:51:45.218Z,102299.42
2019-04-21T14:54:34.763Z,101780.95
2019-04-21T14:57:09.339Z,101665.39
2019-04-21T14:59:39.678Z,101458.28
2019-04-21T15:02:13.903Z,101469.66
2019-04-21T15:04:45.902Z,100766.56
2019-04-21T15:07:17.470Z,100844.62
2019-04-21T15:10:01.092Z,101017.23
2019-04-21T15:12:20.341Z,100206.48
2019-04-21T15:14:56.012Z,99874.98
2019-04-21T15:17:29.140Z,99584.42
2019-04-21T15:20:04.455Z,99545.42
2019-04-21T15:22:30.845Z,99527.84
2019-04-21T15:25:02.834Z,99493.70
2019-04-21T15:27:33.334Z,99355.22
2019-04-21T15:30:04.830Z,99355.22
2019-04-21T15:32:37.350Z,99211.68
2019-04-21T15:35:11.075Z,99174.57
2019-04-21T15:37:44.065Z,99150.70
2019-04-21T15:40:28.213Z,99217.85
2019-04-21T15:42:48.380Z,99159.38
2019-04-21T15:45:19.004Z,99316.45
2019-04-21T15:47:49.977Z,99597.00
2019-04-21T15:50:21.866Z,99646.42
2019-04-21T15:52:57.978Z,99556.67
2019-04-21T15:55:46.687Z,99533.25
2019-04-21T15:58:24.992Z,99566.40
2019-04-21T16:01:06.957Z,99425.67
2019-04-21T16:03:38.578Z,99347.20
2019-04-21T16:06:09.703Z,99326.16
2019-04-21T16:08:46.595Z,99067.90
2019-04-21T16:11:13.980Z,98928.42
2019-04-21T16:13:45.882Z,98911.76
2019-04-21T16:16:20.182Z,98860.05
2019-04-21T16:18:52.087Z,98761.34
2019-04-21T16:21:24.088Z,98728.37
2019-04-21T16:23:54.486Z,98655.95
2019-04-21T16:26:24.826Z,98648.97
2019-04-21T16:28:55.339Z,98513.63
2019-04-21T16:31:27.897Z,98547.93
2019-04-21T16:33:58.820Z,98483.36
2019-04-21T16:36:29.826Z,98370.47
2019-04-21T16:39:00.156Z,98371.63
2019-04-21T16:41:33.959Z,98346.03
2019-04-21T16:44:05.132Z,98375.61
2019-04-21T16:46:36.033Z,98304.30
2019-04-21T16:49:07.550Z,98347.20
2019-04-21T16:51:49.831Z,98345.88
2019-04-21T16:54:29.252Z,98326.73
2019-04-21T16:57:10.050Z,98282.88
2019-04-21T16:59:44.458Z,98242.03
2019-04-21T17:02:16.451Z,98210.75
2019-04-21T17:04:48.499Z,98236.02
2019-04-21T17:07:20.012Z,98263.12
2019-04-21T17:09:52.879Z,98222.73
2019-04-21T17:12:24.544Z,98221.41
2019-04-21T17:15:10.737Z,98197.30
2019-04-21T17:17:50.102Z,98194.48
2019-04-21T17:20:27.887Z,98115.31
2019-04-21T17:22:45.492Z,98088.24
2019-04-21T17:25:18.262Z,98060.70
2019-04-21T17:27:49.284Z,98045.77
2019-04-21T17:30:20.534Z,98028.53
2019-04-21T17:32:51.946Z,98007.30
2019-04-21T17:35:24.762Z,97957.20
2019-04-21T17:37:56.258Z,97906.48
2019-04-21T17:40:27.965Z,97872.48
2019-04-21T17:43:03.220Z,97809.36
2019-04-21T17:45:31.072Z,97780.22
2019-04-21T17:48:08.171Z,97775.59
2019-04-21T17:51:01.352Z,97736.80
2019-04-21T17:53:53.779Z,97690.13
2019-04-21T17:56:48.127Z,97702.05
2019-04-21T17:59:17.604Z,97672.91
2019-04-21T18:01:49.678Z,97624.41
2019-04-21T18:04:22.846Z,97569.65
2019-04-21T18:07:08.190Z,97533.89
2019-04-21T18:09:49.880Z,97524.94
2019-04-21T18:12:16.682Z,97486.75
2019-04-21T18:14:32.731Z,97473.52
2019-04-21T18:17:06.576Z,97433.83
2019-04-21T18:19:41.820Z,97388.72
2019-04-21T18:22:17.465Z,97355.52
2019-04-21T18:25:02.978Z,97310.72
2019-04-21T18:27:21.975Z,97302.80
2019-04-21T18:29:55.368Z,97258.23
2019-04-21T18:32:30.830Z,97230.14
2019-04-21T18:35:19.129Z,97247.66
2019-04-21T18:38:09.654Z,97195.81
2019-04-21T18:40:35.226Z,97190.52
2019-04-21T18:43:42.121Z,97136.74
2019-04-21T18:46:27.000Z,97119.41
2019-04-21T18:49:00.760Z,97107.69
2019-04-21T18:51:57.186Z,97089.20
2019-04-21T18:54:35.846Z,97052.61
2019-04-21T18:57:05.404Z,97002.45
2019-04-21T18:59:33.660Z,96972.12
2019-04-21T19:02:05.895Z,96976.41
2019-04-21T19:04:33.869Z,96982.34
2019-04-21T19:07:22.751Z,96961.73
2019-04-21T19:10:20.492Z,96950.05
2019-04-21T19:12:47.744Z,96934.89
2019-04-21T19:15:00.608Z,96898.11
2019-04-21T19:22:38.816Z,96913.64
2019-04-21T19:25:15.415Z,96900.75
2019-04-21T19:27:53.203Z,96829.13
2019-04-21T19:30:29.825Z,96872.91
2019-04-21T19:33:01.090Z,96801.78
2019-04-21T19:35:13.054Z,96814.63
2019-04-21T19:37:52.019Z,96772.47
2019-04-21T19:40:31.025Z,96767.19
2019-04-21T19:42:57.853Z,96765.05
2019-04-21T19:45:40.926Z,96759.63
2019-04-21T19:48:16.510Z,96702.84
2019-04-21T19:50:47.302Z,96713.55
2019-04-21T19:53:06.231Z,96730.48
2019-04-21T19:55:32.072Z,96708.95
2019-04-21T19:58:03.150Z,96690.80
2019-04-21T20:00:34.734Z,96692.48
2019-04-21T20:03:06.246Z,96704.17
2019-04-21T20:05:44.480Z,96721.43
2019-04-21T20:08:23.599Z,96676.83
2019-04-21T20:10:59.622Z,96655.94
2019-04-21T20:13:49.127Z,96676.33
2019-04-21T20:16:06.581Z,96643.92
2019-04-21T20:18:32.567Z,96656.94
2019-04-21T20:20:58.335Z,96645.56
2019-04-21T20:23:41.153Z,96660.21
2019-04-21T20:26:11.854Z,96676.97
2019-04-21T20:28:54.757Z,96692.48
2019-04-21T20:31:29.368Z,96694.61
2019-04-21T20:34:05.082Z,96699.71
2019-04-21T20:36:42.862Z,96710.23
2019-04-21T20:38:57.930Z,96688.52
2019-04-21T20:41:35.327Z,96665.13
2019-04-21T20:44:11.852Z,96702.34
2019-04-21T20:46:45.117Z,96642.11
2019-04-21T20:49:15.604Z,96700.86
2019-04-21T20:52:08.121Z,96701.03
2019-04-21T20:54:31.706Z,96702.17
2019-04-21T20:57:07.789Z,96727.52
2019-04-21T20:59:32.754Z,96702.99
2019-04-21T21:02:10.138Z,96708.27
2019-04-21T21:04:34.945Z,96773.25
2019-04-21T21:07:30.605Z,96806.72
2019-04-21T21:09:52.282Z,96826.80
2019-04-21T21:12:34.608Z,96829.77
2019-04-21T21:14:50.223Z,96838.33
2019-04-21T21:17:39.251Z,96841.32
2019-04-21T21:20:09.007Z,96851.17
2019-04-21T21:22:27.910Z,96887.23
2019-04-21T21:25:03.845Z,96874.06
2019-04-21T21:27:34.164Z,96867.95
2019-04-21T21:30:08.371Z,96897.94
2019-04-21T21:32:44.230Z,96926.97
2019-04-21T21:35:13.202Z,96915.25
2019-04-21T21:37:49.555Z,96931.57
2019-04-21T21:40:26.039Z,96897.47
2019-04-21T21:42:40.686Z,96916.75
2019-04-21T21:45:16.009Z,96957.11
2019-04-21T21:48:01.028Z,96922.36
2019-04-21T21:50:23.589Z,96960.57
2019-04-21T21:52:59.838Z,96974.75
2019-04-21T21:55:23.642Z,96975.74
2019-04-21T21:58:14.268Z,96958.92
2019-04-21T22:00:55.409Z,96952.17
2019-04-21T22:03:29.412Z,96925.64
2019-04-21T22:06:03.566Z,96968.31
2019-04-21T22:08:30.431Z,96988.42
2019-04-21T22:11:01.452Z,96990.57
2019-04-21T22:13:42.838Z,96993.53
2019-04-21T22:16:11.824Z,96962.71
2019-04-21T22:18:56.286Z,96997.00
2019-04-21T22:21:20.363Z,97026.21
2019-04-21T22:23:49.862Z,97041.72
2019-04-21T22:26:13.461Z,97055.23
2019-04-21T22:28:45.598Z,96992.71
2019-04-21T22:31:24.581Z,97026.53
2019-04-21T22:33:54.875Z,97037.75
2019-04-21T22:36:35.512Z,97023.25
2019-04-21T22:39:13.384Z,97036.93
2019-04-21T22:41:38.279Z,97033.14
2019-04-21T22:44:04.823Z,97047.82
2019-04-21T22:46:36.123Z,96997.67
2019-04-21T22:49:10.352Z,97018.78
2019-04-21T22:51:46.493Z,97037.10
2019-04-21T22:54:21.565Z,97037.43
2019-04-21T22:56:56.275Z,97047.00
2019-04-21T22:59:21.033Z,97071.73
2019-04-21T23:01:52.275Z,97083.42
2019-04-21T23:04:25.409Z,97100.09
2019-04-21T23:06:56.654Z,97093.50
2019-04-21T23:09:26.731Z,97137.06
2019-04-21T23:11:59.322Z,97112.63
2019-04-21T23:14:33.493Z,97141.68
2019-04-21T23:17:25.541Z,97112.63
2019-04-21T23:19:46.020Z,97103.22
2019-04-21T23:22:31.293Z,97114.77
2019-04-21T23:24:57.384Z,97110.98
2019-04-21T23:27:23.798Z,97116.27
2019-04-21T23:30:09.817Z,97128.16
2019-04-21T23:32:28.797Z,97155.05
2019-04-21T23:34:47.778Z,97153.73
2019-04-21T23:37:22.181Z,97181.12
2019-04-21T23:39:52.176Z,97148.29
2019-04-21T23:42:30.723Z,97147.80
2019-04-21T23:44:58.392Z,97189.20
2019-04-21T23:47:41.825Z,97176.00
2019-04-21T23:50:15.832Z,97203.07
2019-04-21T23:52:32.522Z,97200.10
2019-04-21T23:55:05.229Z,97189.20
2019-04-21T23:57:40.808Z,97225.17
